Time;durP1;ratioP1;P1;durP2;ratioP2;P2;SDS_P1;SDS_P2;PMS_P1;PMS_P2;Temp;Humidity;BMP_temperature;BMP_pressure;BME280_temperature;BME280_humidity;BME280_pressure;Samples;Min_cycle;Max_cycle;Signal;HPM_P1;HPM_P2
2023/12/23 00:02:20;;;;;;;4.78;3.85;;;;;;;7.18;100.00;100131.06;6139794;23;20647;-71
2023/12/23 00:04:46;;;;;;;3.53;3.42;;;;;;;7.21;100.00;100157.91;6077935;23;20014;-72
2023/12/23 00:07:14;;;;;;;3.10;3.00;;;;;;;6.76;100.00;100089.56;6134146;23;20096;-73
2023/12/23 00:09:41;;;;;;;3.58;3.47;;;;;;;7.18;100.00;100164.13;6105708;23;20314;-70
2023/12/23 00:12:10;;;;;;;3.25;3.15;;;;;;;7.03;100.00;100143.97;6137103;23;20021;-71
2023/12/23 00:14:37;;;;;;;3.42;3.33;;;;;;;7.16;100.00;100166.81;6107838;23;20034;-72
2023/12/23 00:17:04;;;;;;;3.28;3.17;;;;;;;6.59;100.00;100098.13;6137633;23;20013;-72
2023/12/23 00:19:30;;;;;;;4.68;4.47;;;;;;;6.84;100.00;100130.94;6109179;23;20021;-72
2023/12/23 00:21:57;;;;;;;3.80;3.33;;;;;;;6.99;100.00;100159.75;6136012;23;20024;-72
2023/12/23 00:24:28;;;;;;;4.45;4.05;;;;;;;7.23;100.00;100190.00;6111207;23;20033;-71
2023/12/23 00:26:57;;;;;;;3.33;3.22;;;;;;;7.19;100.00;100191.91;6138690;23;20080;-71
2023/12/23 00:29:24;;;;;;;5.03;4.63;;;;;;;6.82;100.00;100145.81;6105630;23;20020;-72
2023/12/23 00:31:51;;;;;;;3.40;3.30;;;;;;;7.11;100.00;100199.25;6114926;23;20103;-71
2023/12/23 00:34:18;;;;;;;3.97;3.78;;;;;;;6.85;100.00;100172.56;6108429;23;20353;-71
2023/12/23 00:36:44;;;;;;;3.45;3.35;;;;;;;6.72;100.00;100159.25;6138104;23;20321;-73
2023/12/23 00:39:11;;;;;;;3.35;3.25;;;;;;;7.13;100.00;100213.91;6111902;23;20041;-71
2023/12/23 00:41:38;;;;;;;3.30;3.20;;;;;;;6.94;100.00;100187.81;6133685;23;20035;-71
2023/12/23 00:44:04;;;;;;;3.75;3.55;;;;;;;6.99;100.00;100200.66;6114488;23;20035;-73
2023/12/23 00:46:31;;;;;;;3.33;3.22;;;;;;;7.07;100.00;100221.19;6138992;23;20351;-72
2023/12/23 00:48:57;;;;;;;3.20;3.10;;;;;;;7.10;100.00;100231.50;6115752;23;20022;-71
2023/12/23 00:51:24;;;;;;;4.65;4.45;;;;;;;6.32;100.00;100092.41;6114748;23;20260;-72
2023/12/23 00:53:50;;;;;;;3.60;3.47;;;;;;;6.72;100.00;100147.97;6108896;23;20563;-70
2023/12/23 00:56:21;;;;;;;4.32;3.92;;;;;;;7.08;100.00;100195.03;6142655;23;20147;-71
2023/12/23 00:58:48;;;;;;;3.70;3.60;;;;;;;6.93;100.00;100165.25;6117110;23;20440;-71
2023/12/23 01:01:15;;;;;;;5.88;3.70;;;;;;;7.14;100.00;100202.56;6151379;23;20013;-71
2023/12/23 01:03:43;;;;;;;3.38;3.28;;;;;;;6.69;100.00;100135.91;6089405;23;20558;-71
2023/12/23 01:06:09;;;;;;;3.40;3.30;;;;;;;6.72;100.00;100137.56;6152210;23;20035;-70
2023/12/23 01:08:36;;;;;;;3.03;2.92;;;;;;;6.80;100.00;100158.91;6118815;23;20213;-73
2023/12/23 01:11:02;;;;;;;3.20;3.10;;;;;;;7.01;100.00;100195.38;6089963;23;20056;-71
2023/12/23 01:13:29;;;;;;;4.28;4.07;;;;;;;7.10;100.00;100215.84;6116245;23;20067;-72
2023/12/23 01:15:55;;;;;;;3.80;3.60;;;;;;;7.11;100.00;100236.63;6142902;23;20060;-74
2023/12/23 01:18:22;;;;;;;26.58;25.27;;;;;;;6.03;100.00;100068.47;6016434;23;20293;-73
2023/12/23 01:20:49;;;;;;;3.55;3.45;;;;;;;6.73;100.00;100158.31;6045264;23;20053;-73
2023/12/23 01:23:15;;;;;;;4.75;4.45;;;;;;;6.32;100.00;100124.53;6110911;23;20088;-72
2023/12/23 01:25:42;;;;;;;3.53;3.42;;;;;;;6.82;100.00;100197.97;6126970;23;20473;-71
2023/12/23 01:28:09;;;;;;;3.30;3.20;;;;;;;7.08;100.00;100242.00;6106133;23;20421;-71
2023/12/23 01:30:35;;;;;;;3.42;3.33;;;;;;;6.97;100.00;100249.44;6086962;23;20032;-73
2023/12/23 01:33:02;;;;;;;3.38;3.22;;;;;;;6.64;100.00;100220.50;6114699;23;20098;-70
2023/12/23 01:35:29;;;;;;;4.85;4.65;;;;;;;6.94;100.00;100284.34;6138556;23;20524;-71
2023/12/23 01:37:57;;;;;;;3.75;3.55;;;;;;;6.83;100.00;100286.56;6114374;23;20082;-72
2023/12/23 01:40:26;;;;;;;3.40;3.30;;;;;;;6.72;100.00;100271.38;6138003;23;20093;-71
2023/12/23 01:42:52;;;;;;;3.47;3.35;;;;;;;6.33;100.00;100240.88;6113305;23;20057;-71
2023/12/23 01:45:19;;;;;;;3.80;3.65;;;;;;;6.83;100.00;100343.09;6140762;23;20013;-72
2023/12/23 01:47:47;;;;;;;3.92;3.72;;;;;;;6.84;100.00;100326.56;6106315;23;20091;-73
2023/12/23 01:50:17;;;;;;;3.15;3.05;;;;;;;6.78;100.00;100318.06;6141976;23;20044;-73
2023/12/23 01:52:44;;;;;;;3.50;3.40;;;;;;;6.82;100.00;100326.59;6109892;23;20041;-71
2023/12/23 01:55:11;;;;;;;3.33;3.22;;;;;;;6.73;100.00;100319.16;6084761;23;20036;-71
2023/12/23 01:57:38;;;;;;;4.10;3.90;;;;;;;6.42;100.00;100270.94;6134739;23;20147;-74
2023/12/23 02:00:07;;;;;;;3.30;3.20;;;;;;;6.66;100.00;100309.94;6111864;23;20080;-73
2023/12/23 02:02:38;;;;;;;3.30;3.20;;;;;;;6.37;100.00;100263.31;6144966;23;20025;-71
2023/12/23 02:05:06;;;;;;;3.28;3.17;;;;;;;6.72;100.00;100320.94;6108557;23;20080;-71
2023/12/23 02:07:34;;;;;;;4.50;4.30;;;;;;;5.04;100.00;100074.25;6141744;23;20017;-71
2023/12/23 02:10:00;;;;;;;3.40;3.30;;;;;;;6.70;100.00;100314.94;6108063;23;20020;-71
2023/12/23 02:12:36;;;;;;;3.40;3.30;;;;;;;6.46;100.00;100293.34;6114643;23;20025;-72
2023/12/23 02:15:09;;;;;;;3.75;3.38;;;;;;;6.66;100.00;100329.03;6107867;23;20017;-73
2023/12/23 02:17:38;;;;;;;4.38;4.00;;;;;;;6.71;100.00;100341.84;6135397;23;20147;-71
2023/12/23 02:20:05;;;;;;;3.20;3.10;;;;;;;6.71;100.00;100332.25;6086056;23;20010;-72
2023/12/23 02:22:32;;;;;;;3.40;3.20;;;;;;;6.75;100.00;100340.81;6135270;23;20009;-72
2023/12/23 02:24:58;;;;;;;3.80;3.60;;;;;;;6.39;100.00;100284.94;6112183;23;20241;-73
2023/12/23 02:27:29;;;;;;;7.75;5.03;;;;;;;6.83;100.00;100351.75;6098218;23;20154;-71
2023/12/23 02:30:00;;;;;;;3.40;3.30;;;;;;;6.56;100.00;100332.91;6055955;23;20017;-71
2023/12/23 02:32:27;;;;;;;4.18;3.92;;;;;;;6.60;100.00;100337.09;6144357;23;20027;-71
2023/12/23 02:34:54;;;;;;;3.50;3.40;;;;;;;6.53;100.00;100331.28;6083619;23;20006;-72
2023/12/23 02:37:21;;;;;;;4.03;3.85;;;;;;;6.63;100.00;100344.78;6138011;23;20013;-72
2023/12/23 02:39:47;;;;;;;3.42;3.33;;;;;;;6.69;100.00;100338.47;6104506;23;20057;-72
2023/12/23 02:42:13;;;;;;;3.60;3.50;;;;;;;6.70;100.00;100333.19;6128974;23;20292;-72
2023/12/23 02:44:40;;;;;;;3.55;3.38;;;;;;;6.31;100.00;100262.69;6106285;23;20116;-72
2023/12/23 02:47:06;;;;;;;3.67;3.50;;;;;;;6.60;100.00;100308.41;6136662;23;20048;-72
2023/12/23 02:49:33;;;;;;;4.72;4.53;;;;;;;6.78;100.00;100319.84;6086419;23;20025;-72
2023/12/23 02:51:59;;;;;;;4.10;3.80;;;;;;;6.76;100.00;100332.09;6137937;23;20041;-72
2023/12/23 02:54:25;;;;;;;3.30;3.20;;;;;;;6.74;100.00;100311.28;6113676;23;20025;-71
2023/12/23 02:56:52;;;;;;;6.05;5.47;;;;;;;6.47;100.00;100255.94;6130214;23;20306;-70
2023/12/23 02:59:19;;;;;;;7.00;4.13;;;;;;;6.82;100.00;100308.34;6084056;23;20393;-71
2023/12/23 03:01:45;;;;;;;3.80;3.60;;;;;;;6.96;100.00;100326.84;6082992;23;20034;-72
2023/12/23 03:04:12;;;;;;;3.45;3.25;;;;;;;7.07;100.00;100317.72;6134047;23;20017;-71
2023/12/23 03:06:38;;;;;;;4.65;4.22;;;;;;;7.28;100.00;100323.78;6108891;23;20036;-72
2023/12/23 03:09:04;;;;;;;3.50;3.30;;;;;;;7.28;100.00;100292.44;6138072;23;20401;-71
2023/12/23 03:11:31;;;;;;;4.78;4.57;;;;;;;6.35;100.00;100133.97;6104234;23;20034;-71
2023/12/23 03:14:00;;;;;;;3.70;3.50;;;;;;;7.47;100.00;100280.22;6141897;23;20027;-71
2023/12/23 03:16:33;;;;;;;3.97;3.67;;;;;;;7.73;100.00;100310.34;6106028;23;20262;-73
2023/12/23 03:19:00;;;;;;;3.90;3.72;;;;;;;7.66;100.00;100303.75;6141647;23;20538;-72
2023/12/23 03:21:27;;;;;;;4.65;4.45;;;;;;;7.13;100.00;100193.03;6105569;23;20349;-71
2023/12/23 03:23:53;;;;;;;4.05;3.78;;;;;;;7.93;100.00;100319.03;6138945;23;20422;-72
2023/12/23 03:26:20;;;;;;;3.60;3.40;;;;;;;8.01;100.00;100311.69;6111085;23;20014;-71
2023/12/23 03:28:46;;;;;;;4.70;4.40;;;;;;;8.01;100.00;100306.44;6110603;23;20021;-74
2023/12/23 03:31:13;;;;;;;4.40;4.18;;;;;;;7.68;100.00;100248.84;6112705;23;20088;-72
2023/12/23 03:33:39;;;;;;;4.40;4.20;;;;;;;7.75;100.00;100234.53;6109962;23;20017;-71
2023/12/23 03:36:06;;;;;;;4.32;4.03;;;;;;;7.59;100.00;100216.97;6110449;23;20224;-71
2023/12/23 03:38:33;;;;;;;4.35;4.15;;;;;;;7.50;100.00;100191.31;6137298;23;20084;-71
2023/12/23 03:40:59;;;;;;;3.92;3.72;;;;;;;8.04;100.00;100295.00;6105101;23;20485;-72
2023/12/23 03:43:26;;;;;;;5.25;4.95;;;;;;;8.07;100.00;100287.84;6141301;23;20029;-72
2023/12/23 03:45:52;;;;;;;4.45;4.20;;;;;;;7.95;100.00;100262.31;6106418;23;20051;-72
2023/12/23 03:48:19;;;;;;;5.68;4.40;;;;;;;7.89;100.00;100257.41;6137832;23;20025;-71
2023/12/23 03:50:45;;;;;;;4.93;4.60;;;;;;;7.54;100.00;100184.19;6103935;23;20193;-72
2023/12/23 03:53:12;;;;;;;4.78;4.43;;;;;;;7.98;100.00;100267.41;6108837;23;20092;-71
2023/12/23 03:55:39;;;;;;;6.03;5.53;;;;;;;7.94;100.00;100261.47;6084215;23;20017;-72
2023/12/23 03:58:05;;;;;;;5.63;4.88;;;;;;;8.09;100.00;100275.56;6132843;23;20029;-72
2023/12/23 04:00:32;;;;;;;3.80;3.60;;;;;;;7.58;100.00;100204.03;6112377;23;20033;-72
2023/12/23 04:02:58;;;;;;;10.75;4.63;;;;;;;7.59;100.00;100190.88;6139906;23;20024;-72
2023/12/23 04:05:25;;;;;;;5.82;5.40;;;;;;;8.07;100.00;100266.94;6105456;23;20533;-72
2023/12/23 04:07:51;;;;;;;5.30;4.90;;;;;;;7.65;100.00;100201.97;6139575;23;20028;-71
2023/12/23 04:10:18;;;;;;;4.30;3.90;;;;;;;7.89;100.00;100244.34;6092646;23;20006;-71
2023/12/23 04:12:44;;;;;;;4.40;4.20;;;;;;;8.06;100.00;100267.88;6140273;23;20389;-71
2023/12/23 04:15:11;;;;;;;4.28;3.97;;;;;;;7.63;100.00;100194.19;6106417;23;20010;-71
2023/12/23 04:17:39;;;;;;;4.15;3.95;;;;;;;7.93;100.00;100224.97;6129006;23;20036;-73
2023/12/23 04:20:06;;;;;;;4.32;4.13;;;;;;;8.12;100.00;100240.63;6114506;23;20371;-72
2023/12/23 04:22:33;;;;;;;7.18;4.72;;;;;;;8.08;100.00;100198.09;6140831;23;20191;-72
2023/12/23 04:25:00;;;;;;;5.03;4.63;;;;;;;8.18;100.00;100208.94;6113566;23;20420;-72
2023/12/23 04:27:26;;;;;;;6.43;6.00;;;;;;;8.18;100.00;100198.47;6140058;23;20033;-71
2023/12/23 04:29:53;;;;;;;8.82;4.93;;;;;;;8.19;100.00;100192.31;6115516;23;20737;-72
2023/12/23 04:32:19;;;;;;;5.35;4.95;;;;;;;8.22;100.00;100184.34;6141804;23;20085;-72
2023/12/23 04:34:46;;;;;;;4.75;4.32;;;;;;;8.19;100.00;100164.41;6081495;23;20012;-73
2023/12/23 04:37:12;;;;;;;4.00;3.80;;;;;;;8.15;100.00;100136.72;6141855;23;20306;-71
2023/12/23 04:39:39;;;;;;;4.47;4.18;;;;;;;8.23;100.00;100138.97;6108938;23;20286;-71
2023/12/23 04:42:06;;;;;;;9.98;4.25;;;;;;;8.09;100.00;100102.22;6140764;23;20031;-73
2023/12/23 04:44:32;;;;;;;4.78;4.47;;;;;;;8.24;100.00;100108.44;6115238;23;20102;-73
2023/12/23 04:46:59;;;;;;;5.43;4.10;;;;;;;7.61;100.00;99994.94;6133843;23;20025;-71
2023/12/23 04:49:25;;;;;;;6.05;5.68;;;;;;;8.37;100.00;100084.19;6113572;23;20413;-70
2023/12/23 04:51:52;;;;;;;4.13;3.83;;;;;;;7.92;100.00;100012.50;6140222;23;20024;-72
2023/12/23 04:54:18;;;;;;;5.10;4.70;;;;;;;8.33;100.00;100063.50;6113799;23;20084;-72
2023/12/23 04:56:45;;;;;;;4.55;4.25;;;;;;;8.29;100.00;100059.38;6058670;23;20020;-71
2023/12/23 04:59:12;;;;;;;4.30;4.00;;;;;;;8.37;100.00;100033.66;6136830;23;20076;-71
2023/12/23 05:01:38;;;;;;;7.88;4.40;;;;;;;8.03;100.00;99964.06;6112630;23;20484;-72
2023/12/23 05:04:05;;;;;;;4.97;4.50;;;;;;;8.47;100.00;99997.44;6136502;23;20431;-72
2023/12/23 05:06:31;;;;;;;5.20;4.70;;;;;;;8.33;100.00;99975.47;6085851;23;20041;-73
2023/12/23 05:08:58;;;;;;;8.95;3.97;;;;;;;7.90;100.00;99906.41;6142084;23;20100;-71
2023/12/23 05:11:24;;;;;;;5.50;5.20;;;;;;;8.57;100.00;99965.47;6106951;23;20087;-73
2023/12/23 05:13:51;;;;;;;12.73;4.85;;;;;;;8.52;100.00;99971.88;6141395;23;20114;-73
2023/12/23 05:16:17;;;;;;;4.97;4.68;;;;;;;8.47;100.00;99942.53;6108499;23;20096;-71
2023/12/23 05:18:43;;;;;;;6.28;4.45;;;;;;;7.80;100.00;99835.53;6142457;23;20251;-70
2023/12/23 05:21:10;;;;;;;4.10;3.90;;;;;;;8.08;100.00;99884.50;6114371;23;20016;-71
2023/12/23 05:23:36;;;;;;;3.85;3.65;;;;;;;8.03;100.00;99875.22;6113215;23;20256;-71
2023/12/23 05:26:03;;;;;;;3.67;3.50;;;;;;;7.16;100.00;99736.25;6112840;23;20033;-73
2023/12/23 05:28:29;;;;;;;3.63;3.50;;;;;;;8.49;100.00;99919.75;6112656;23;20357;-72
2023/12/23 05:30:56;;;;;;;3.30;3.20;;;;;;;8.47;100.00;99916.38;6112270;23;20495;-72
2023/12/23 05:33:24;;;;;;;5.95;5.60;;;;;;;8.57;100.00;99881.75;6142526;23;20040;-71
2023/12/23 05:35:54;;;;;;;4.10;3.80;;;;;;;8.11;100.00;99833.81;6109515;23;20074;-73
2023/12/23 05:38:20;;;;;;;3.92;3.63;;;;;;;8.49;100.00;99915.34;6142964;23;20391;-72
2023/12/23 05:40:47;;;;;;;3.88;3.67;;;;;;;8.45;100.00;99898.16;6099334;23;20054;-71
2023/12/23 05:43:13;;;;;;;4.72;4.43;;;;;;;8.52;100.00;99909.97;6143891;23;20107;-72
2023/12/23 05:45:40;;;;;;;3.88;3.67;;;;;;;8.51;100.00;99902.22;6109176;23;20049;-72
2023/12/23 05:48:07;;;;;;;4.97;4.07;;;;;;;8.16;100.00;99858.78;6137441;23;20072;-72
2023/12/23 05:50:33;;;;;;;4.00;3.80;;;;;;;8.38;100.00;99896.81;6114408;23;20495;-72
2023/12/23 05:53:00;;;;;;;3.80;3.60;;;;;;;8.29;100.00;99887.69;6137609;23;20271;-72
2023/12/23 05:55:26;;;;;;;4.88;4.68;;;;;;;8.09;100.00;99841.75;6111463;23;20100;-71
2023/12/23 05:57:53;;;;;;;5.60;4.20;;;;;;;8.28;100.00;99859.88;6148999;23;20013;-71
2023/12/23 06:00:20;;;;;;;4.63;4.38;;;;;;;7.64;100.00;99765.00;6113199;23;20450;-72
2023/12/23 06:02:47;;;;;;;4.40;4.20;;;;;;;8.33;100.00;99893.59;6143952;23;20017;-71
2023/12/23 06:05:14;;;;;;;4.28;4.00;;;;;;;8.02;100.00;99836.94;6106487;23;20033;-71
2023/12/23 06:07:40;;;;;;;4.30;4.00;;;;;;;7.91;100.00;99825.31;6085122;23;20033;-73
2023/12/23 06:10:07;;;;;;;4.68;4.10;;;;;;;7.30;100.00;99730.31;6108387;23;20025;-71
2023/12/23 06:12:34;;;;;;;3.67;3.58;;;;;;;8.51;100.00;99925.75;6138285;23;20689;-71
2023/12/23 06:15:00;;;;;;;3.85;3.67;;;;;;;8.49;100.00;99917.13;6111270;23;20037;-73
2023/12/23 06:17:27;;;;;;;9.05;5.03;;;;;;;7.96;100.00;99825.09;6074424;23;20092;-70
2023/12/23 06:19:53;;;;;;;3.80;3.60;;;;;;;8.02;100.00;99863.06;6130002;23;20036;-71
2023/12/23 06:22:21;;;;;;;3.80;3.60;;;;;;;8.51;100.00;99944.88;6094474;23;20415;-72
2023/12/23 06:24:47;;;;;;;3.60;3.50;;;;;;;8.02;100.00;99858.72;6085552;23;20010;-72
2023/12/23 06:27:14;;;;;;;4.10;3.90;;;;;;;8.50;100.00;99940.59;6139921;23;20513;-72
2023/12/23 06:29:43;;;;;;;5.13;4.80;;;;;;;8.53;100.00;99945.63;6105964;23;20252;-71
2023/12/23 06:32:09;;;;;;;3.65;3.50;;;;;;;8.53;100.00;99916.03;6084469;23;20258;-71
2023/12/23 06:34:36;;;;;;;4.03;3.83;;;;;;;8.01;100.00;99825.66;6107663;23;20086;-71
2023/12/23 06:37:02;;;;;;;3.90;3.70;;;;;;;8.41;100.00;99888.81;6085080;23;20034;-71
2023/12/23 06:39:30;;;;;;;5.15;4.85;;;;;;;8.04;100.00;99822.88;6131291;23;20643;-71
2023/12/23 06:41:57;;;;;;;3.85;3.67;;;;;;;8.41;100.00;99880.09;6108806;23;20601;-72
2023/12/23 06:44:23;;;;;;;5.82;4.22;;;;;;;8.52;100.00;99899.50;6141411;23;20040;-72
2023/12/23 06:46:51;;;;;;;4.70;4.43;;;;;;;8.52;100.00;99912.59;6105231;23;20026;-72
2023/12/23 06:49:18;;;;;;;4.18;3.97;;;;;;;8.49;100.00;99917.97;6071318;23;21026;-73
2023/12/23 06:51:44;;;;;;;4.38;4.18;;;;;;;8.51;100.00;99920.50;6093413;23;20077;-73
2023/12/23 06:54:11;;;;;;;4.25;4.05;;;;;;;7.28;100.00;99723.50;6125004;23;20099;-71
2023/12/23 06:56:37;;;;;;;4.25;4.05;;;;;;;8.61;100.00;99939.97;6099811;23;20639;-72
2023/12/23 06:59:09;;;;;;;4.30;4.05;;;;;;;8.13;100.00;99858.09;6122213;23;20409;-73
2023/12/23 07:01:37;;;;;;;7.67;4.00;;;;;;;8.67;100.00;99910.88;6088610;23;20139;-72
2023/12/23 07:04:04;;;;;;;4.90;4.35;;;;;;;8.47;100.00;99921.59;6122386;23;20399;-72
2023/12/23 07:06:31;;;;;;;3.88;3.67;;;;;;;8.29;100.00;99947.81;6092438;23;20266;-72
2023/12/23 07:09:00;;;;;;;3.70;3.50;;;;;;;7.92;100.00;99866.19;6126489;23;20380;-71
2023/12/23 07:11:27;;;;;;;5.57;5.30;;;;;;;8.49;100.00;99996.41;6065604;23;20013;-73
2023/12/23 07:13:53;;;;;;;4.57;3.95;;;;;;;8.49;100.00;100008.66;6105724;23;20086;-70
2023/12/23 07:16:20;;;;;;;4.45;4.05;;;;;;;8.39;100.00;99997.81;6085932;23;20030;-73
2023/12/23 07:18:46;;;;;;;4.00;3.80;;;;;;;8.36;100.00;100029.38;6067359;23;20089;-72
2023/12/23 07:21:13;;;;;;;4.53;4.13;;;;;;;8.38;100.00;100030.97;6125300;23;20033;-71
2023/12/23 07:23:39;;;;;;;4.13;3.92;;;;;;;8.32;100.00;100036.53;6093405;23;20083;-72
2023/12/23 07:26:12;;;;;;;4.18;3.78;;;;;;;8.23;100.00;100026.56;6115448;23;20013;-72
2023/12/23 07:28:38;;;;;;;3.95;3.75;;;;;;;7.78;100.00;99992.31;6061342;23;20267;-72
2023/12/23 07:31:05;;;;;;;3.90;3.70;;;;;;;7.61;100.00;99984.50;6122888;23;20029;-72
2023/12/23 07:33:32;;;;;;;6.05;5.57;;;;;;;7.71;100.00;100011.00;6067112;23;20414;-71
2023/12/23 07:35:58;;;;;;;4.00;3.80;;;;;;;8.25;100.00;100090.06;6120665;23;20468;-73
2023/12/23 07:38:25;;;;;;;4.88;4.20;;;;;;;8.30;100.00;100098.53;6092330;23;20118;-72
2023/12/23 07:40:51;;;;;;;5.28;4.78;;;;;;;7.88;100.00;100039.72;6120983;23;20016;-73
2023/12/23 07:43:18;;;;;;;4.13;3.92;;;;;;;7.59;100.00;99995.03;6073088;23;20034;-72
2023/12/23 07:45:44;;;;;;;13.55;4.55;;;;;;;7.93;100.00;100063.81;6092852;23;20093;-71
2023/12/23 07:48:11;;;;;;;4.15;3.88;;;;;;;7.61;100.00;100028.06;6097816;23;20029;-70
2023/12/23 07:50:38;;;;;;;4.57;4.18;;;;;;;7.50;100.00;99997.28;6115274;23;20103;-70
2023/12/23 07:53:04;;;;;;;3.95;3.75;;;;;;;7.68;100.00;100039.91;6103524;23;20016;-70
2023/12/23 07:55:31;;;;;;;6.75;6.35;;;;;;;8.11;100.00;100113.47;6129827;23;20029;-69
2023/12/23 07:57:59;;;;;;;4.20;4.00;;;;;;;8.32;100.00;100142.88;6107171;23;20120;-71
2023/12/23 08:00:25;;;;;;;4.63;4.32;;;;;;;7.89;100.00;100085.81;6137851;23;20830;-70
2023/12/23 08:02:52;;;;;;;4.50;4.18;;;;;;;8.29;100.00;100141.25;6101104;23;20021;-70
2023/12/23 08:05:19;;;;;;;4.85;4.60;;;;;;;8.02;100.00;100093.00;6123329;23;20569;-72
2023/12/23 08:07:46;;;;;;;4.30;4.10;;;;;;;8.34;100.00;100139.25;6112977;23;20028;-72
2023/12/23 08:10:12;;;;;;;4.97;4.68;;;;;;;8.30;100.00;100150.81;6132429;23;20025;-71
2023/12/23 08:12:39;;;;;;;3.72;3.55;;;;;;;8.35;100.00;100154.00;6112878;23;20125;-73
2023/12/23 08:15:06;;;;;;;4.57;4.00;;;;;;;7.88;100.00;100073.69;6110111;23;20021;-73
2023/12/23 08:17:32;;;;;;;5.15;4.88;;;;;;;8.18;100.00;100123.53;6105315;23;20005;-70
2023/12/23 08:19:59;;;;;;;4.13;3.75;;;;;;;8.39;100.00;100158.16;6137394;23;20103;-71
2023/12/23 08:22:26;;;;;;;5.00;4.70;;;;;;;8.36;100.00;100145.25;6104685;23;20025;-72
2023/12/23 08:24:52;;;;;;;3.97;3.78;;;;;;;8.38;100.00;100148.63;6112739;23;20021;-70
2023/12/23 08:27:19;;;;;;;4.85;4.43;;;;;;;8.38;100.00;100143.41;6057077;23;20080;-71
2023/12/23 08:29:46;;;;;;;4.53;4.28;;;;;;;8.44;100.00;100151.88;6134955;23;20080;-71
2023/12/23 08:32:13;;;;;;;5.45;4.95;;;;;;;8.47;100.00;100141.25;6109932;23;20450;-72
2023/12/23 08:34:39;;;;;;;4.40;4.10;;;;;;;8.44;100.00;100131.81;6133924;23;20021;-72
2023/12/23 08:37:06;;;;;;;5.40;4.93;;;;;;;8.07;100.00;100081.41;6110551;23;20240;-72
2023/12/23 08:39:32;;;;;;;5.28;5.05;;;;;;;8.51;100.00;100124.47;6132704;23;20334;-71
2023/12/23 08:41:59;;;;;;;4.18;3.97;;;;;;;8.60;100.00;100134.47;6110305;23;20217;-69
2023/12/23 08:44:25;;;;;;;4.68;4.28;;;;;;;8.64;100.00;100124.66;6135393;23;20021;-70
2023/12/23 08:46:52;;;;;;;4.40;4.20;;;;;;;8.26;100.00;100033.38;6106497;23;20103;-70
2023/12/23 08:49:19;;;;;;;3.92;3.75;;;;;;;8.64;100.00;100091.53;6066234;23;20018;-70
2023/12/23 08:51:45;;;;;;;4.07;3.88;;;;;;;8.55;100.00;100089.41;6067187;23;20014;-72
2023/12/23 08:54:12;;;;;;;7.25;3.83;;;;;;;8.74;100.00;100102.31;6104046;23;20259;-69
2023/12/23 08:56:39;;;;;;;4.35;4.13;;;;;;;8.46;100.00;100016.66;6079081;23;20030;-68
2023/12/23 08:59:05;;;;;;;4.20;4.00;;;;;;;8.88;100.00;100044.88;6104200;23;20106;-70
2023/12/23 09:01:32;;;;;;;5.55;5.15;;;;;;;8.78;100.00;100007.06;6078487;23;20045;-73
2023/12/23 09:03:59;;;;;;;8.60;4.15;;;;;;;8.89;100.00;99996.81;6101670;23;20554;-70
2023/12/23 09:06:25;;;;;;;4.75;4.40;;;;;;;8.76;100.00;99988.84;6082038;23;20014;-72
2023/12/23 09:08:54;;;;;;;4.20;3.90;;;;;;;8.91;100.00;100002.81;6114699;23;20069;-70
2023/12/23 09:11:20;;;;;;;7.07;4.72;;;;;;;8.75;100.00;99979.28;6076926;23;20093;-71
2023/12/23 09:13:49;;;;;;;4.20;4.00;;;;;;;8.81;100.00;99982.50;6089416;23;20821;-70
2023/12/23 09:16:16;;;;;;;16.45;4.03;;;;;;;8.98;100.00;99979.78;6080361;23;19998;-69
2023/12/23 09:18:43;;;;;;;5.05;4.43;;;;;;;8.57;100.00;99905.31;6089291;23;20036;-71
2023/12/23 09:21:09;;;;;;;4.00;3.80;;;;;;;9.10;100.00;99947.66;6080147;23;20021;-72
2023/12/23 09:23:37;;;;;;;4.80;4.50;;;;;;;8.91;100.00;99902.53;6103815;23;20318;-71
2023/12/23 09:26:04;;;;;;;7.65;3.90;;;;;;;9.07;100.00;99905.94;6083464;23;20034;-71
2023/12/23 09:28:30;;;;;;;9.13;4.25;;;;;;;8.91;100.00;99889.47;6106579;23;20032;-74
2023/12/23 09:30:59;;;;;;;12.75;4.30;;;;;;;9.12;100.00;99926.59;6082594;23;20113;-70
2023/12/23 09:33:26;;;;;;;5.85;5.50;;;;;;;9.17;100.00;99880.06;6109214;23;20039;-70
2023/12/23 09:35:53;;;;;;;4.05;3.80;;;;;;;9.12;100.00;99914.38;6034354;23;20084;-70
2023/12/23 09:38:20;;;;;;;6.30;4.30;;;;;;;8.96;100.00;99900.47;6111569;23;20018;-71
2023/12/23 09:40:46;;;;;;;4.07;3.88;;;;;;;9.14;100.00;99886.34;6040837;23;20035;-72
2023/12/23 09:43:14;;;;;;;4.20;4.00;;;;;;;9.25;100.00;99898.78;6113785;23;20761;-70
2023/12/23 09:45:42;;;;;;;4.60;4.40;;;;;;;9.24;100.00;99856.97;6075328;23;20040;-72
2023/12/23 09:48:09;;;;;;;4.18;3.85;;;;;;;9.26;100.00;99847.25;6109250;23;20055;-72
2023/12/23 09:50:35;;;;;;;4.60;4.30;;;;;;;9.13;100.00;99829.66;6078259;23;20039;-71
2023/12/23 09:53:04;;;;;;;6.03;4.53;;;;;;;8.95;100.00;99815.06;6046669;23;20355;-72
2023/12/23 09:55:31;;;;;;;5.05;4.85;;;;;;;9.31;100.00;99830.34;6118971;23;20331;-71
2023/12/23 09:57:59;;;;;;;3.95;3.75;;;;;;;9.42;100.00;99839.31;6091671;23;20042;-72
2023/12/23 10:00:26;;;;;;;3.80;3.60;;;;;;;9.43;100.00;99806.97;6117953;23;20048;-71
2023/12/23 10:02:52;;;;;;;7.68;4.40;;;;;;;9.25;100.00;99790.59;6087322;23;20104;-70
2023/12/23 10:05:19;;;;;;;4.68;4.45;;;;;;;9.31;100.00;99812.00;6105111;23;20017;-72
2023/12/23 10:07:46;;;;;;;5.82;4.20;;;;;;;9.38;100.00;99778.41;6089333;23;20382;-74
2023/12/23 10:10:16;;;;;;;4.65;4.35;;;;;;;9.30;100.00;99817.31;6115977;23;20041;-74
2023/12/23 10:12:43;;;;;;;3.90;3.70;;;;;;;9.02;100.00;99794.59;6093549;23;20534;-73
2023/12/23 10:15:11;;;;;;;4.22;4.03;;;;;;;9.08;100.00;99865.75;6089992;23;20496;-72
2023/12/23 10:17:38;;;;;;;4.35;4.15;;;;;;;9.23;100.00;99939.91;6028253;23;20500;-73
2023/12/23 10:20:05;;;;;;;4.15;3.95;;;;;;;9.25;100.00;99992.19;6123444;23;20021;-72
2023/12/23 10:22:32;;;;;;;4.10;3.90;;;;;;;8.88;100.00;99984.69;6086488;23;20041;-73
2023/12/23 10:25:02;;;;;;;4.15;3.95;;;;;;;9.05;100.00;100051.75;6114746;23;20464;-72
2023/12/23 10:27:32;;;;;;;6.32;6.03;;;;;;;8.60;100.00;100024.63;6053859;23;20198;-73
2023/12/23 10:30:02;;;;;;;4.60;4.30;;;;;;;8.62;100.00;100066.38;6111220;23;20077;-72
2023/12/23 10:32:33;;;;;;;4.38;4.13;;;;;;;8.76;100.00;100137.97;6065944;23;20018;-73
2023/12/23 10:35:05;;;;;;;4.05;3.85;;;;;;;8.78;100.00;100156.19;6088676;23;20025;-72
2023/12/23 10:37:33;;;;;;;5.07;4.82;;;;;;;8.76;100.00;100176.38;6043716;23;20496;-71
2023/12/23 10:40:12;;;;;;;5.10;4.80;;;;;;;8.68;100.00;100196.81;6118946;23;20016;-72
2023/12/23 10:42:41;;;;;;;4.20;4.00;;;;;;;8.73;100.00;100192.22;6070102;23;20033;-71
2023/12/23 10:45:10;;;;;;;4.82;4.38;;;;;;;8.59;100.00;100183.31;6126024;23;20025;-70
2023/12/23 10:47:37;;;;;;;5.07;4.78;;;;;;;8.59;100.00;100193.75;6040215;23;20102;-70
2023/12/23 10:50:07;;;;;;;5.50;5.10;;;;;;;8.63;100.00;100214.53;6121743;23;20084;-71
2023/12/23 10:52:35;;;;;;;4.22;3.95;;;;;;;8.58;100.00;100209.56;6092273;23;20558;-71
2023/12/23 10:55:02;;;;;;;5.93;4.13;;;;;;;8.57;100.00;100216.53;6128887;23;20129;-73
2023/12/23 10:57:31;;;;;;;5.32;5.03;;;;;;;8.60;100.00;100210.31;6065021;23;20093;-74
2023/12/23 10:59:57;;;;;;;4.20;4.00;;;;;;;8.30;100.00;100160.38;6117419;23;20023;-71
2023/12/23 11:02:34;;;;;;;4.45;4.20;;;;;;;8.67;100.00;100218.69;6097529;23;20159;-70
2023/12/23 11:05:06;;;;;;;4.40;4.00;;;;;;;8.23;100.00;100170.31;6112558;23;20696;-72
2023/12/23 11:07:42;;;;;;;6.63;6.03;;;;;;;8.75;100.00;100224.38;6097386;23;20033;-71
2023/12/23 11:10:10;;;;;;;4.80;4.50;;;;;;;8.74;100.00;100214.81;6122059;23;20999;-72
2023/12/23 11:12:36;;;;;;;7.30;4.30;;;;;;;8.45;100.00;100141.34;6096261;23;20089;-71
2023/12/23 11:15:03;;;;;;;4.55;4.35;;;;;;;8.37;100.00;100170.47;6104603;23;20030;-72
2023/12/23 11:17:31;;;;;;;5.90;5.53;;;;;;;8.85;100.00;100219.50;6090178;23;20196;-72
2023/12/23 11:20:00;;;;;;;4.07;3.88;;;;;;;8.95;100.00;100213.69;6121763;23;20005;-70
2023/12/23 11:22:29;;;;;;;4.53;4.18;;;;;;;8.46;100.00;100113.41;6093192;23;20082;-72
2023/12/23 11:24:56;;;;;;;4.25;4.05;;;;;;;9.00;100.00;100176.81;6117283;23;20447;-72
2023/12/23 11:27:33;;;;;;;7.18;5.22;;;;;;;9.01;100.00;100143.63;6086648;23;20025;-73